Time;durP1;ratioP1;P1;durP2;ratioP2;P2;SDS_P1;SDS_P2;PMS_P1;PMS_P2;Temp;Humidity;BMP_temperature;BMP_pressure;BME280_temperature;BME280_humidity;BME280_pressure;Samples;Min_cycle;Max_cycle;Signal;HPM_P1;HPM_P2
2022/03/12 00:00:19;;;;;;;25.45;12.73;;;10.10;90.40;;;;;;5072153;28;20415;-80
2022/03/12 00:02:44;;;;;;;19.52;13.25;;;10.10;90.40;;;;;;5072648;28;20052;-80
2022/03/12 00:05:11;;;;;;;24.73;14.35;;;10.10;90.40;;;;;;5077115;28;20373;-80
2022/03/12 00:07:41;;;;;;;21.52;13.57;;;10.00;90.60;;;;;;5072890;28;20033;-80
2022/03/12 00:10:08;;;;;;;20.63;13.52;;;10.00;90.30;;;;;;5075059;28;20029;-80
2022/03/12 00:12:36;;;;;;;20.00;13.70;;;10.00;90.40;;;;;;5077272;28;20048;-81
2022/03/12 00:15:07;;;;;;;26.42;14.13;;;10.00;90.10;;;;;;5071532;28;20024;-79
2022/03/12 00:17:33;;;;;;;27.73;14.63;;;10.10;90.10;;;;;;5085218;28;20043;-79
2022/03/12 00:20:00;;;;;;;24.38;14.00;;;10.10;89.20;;;;;;5071781;28;20115;-79
2022/03/12 00:22:28;;;;;;;25.98;13.18;;;10.10;89.30;;;;;;5072271;28;20465;-81
2022/03/12 00:24:55;;;;;;;23.13;13.57;;;10.10;88.90;;;;;;5073383;28;20028;-80
2022/03/12 00:27:20;;;;;;;23.40;13.82;;;10.20;88.50;;;;;;5071943;28;20040;-81
2022/03/12 00:29:48;;;;;;;19.73;13.90;;;10.20;88.80;;;;;;5074078;28;20096;-79
2022/03/12 00:32:14;;;;;;;21.58;13.75;;;10.10;88.50;;;;;;5075920;28;20040;-82
2022/03/12 00:34:39;;;;;;;25.23;12.90;;;10.20;88.00;;;;;;5075552;28;20104;-80
2022/03/12 00:37:05;;;;;;;23.13;12.70;;;10.30;87.80;;;;;;5076119;28;20440;-81
2022/03/12 00:39:31;;;;;;;21.38;12.27;;;10.40;87.80;;;;;;5076725;28;20086;-80
2022/03/12 00:41:56;;;;;;;21.02;12.95;;;10.40;87.70;;;;;;5076317;28;20025;-81
2022/03/12 00:44:22;;;;;;;21.17;12.55;;;10.30;87.90;;;;;;5075879;28;20059;-80
2022/03/12 00:46:47;;;;;;;18.35;12.43;;;10.40;88.10;;;;;;5076764;28;20074;-81
2022/03/12 00:49:19;;;;;;;18.33;11.95;;;10.40;88.50;;;;;;5077465;28;20036;-81
2022/03/12 00:51:45;;;;;;;17.45;11.75;;;10.40;88.60;;;;;;5078471;28;20069;-81
2022/03/12 00:54:11;;;;;;;21.52;12.43;;;10.50;88.70;;;;;;5077060;28;20033;-81
2022/03/12 00:56:39;;;;;;;24.45;13.27;;;10.50;89.20;;;;;;5076323;28;20380;-80
2022/03/12 00:59:05;;;;;;;20.35;13.18;;;10.50;89.90;;;;;;5079045;28;20094;-80
2022/03/12 01:01:31;;;;;;;20.13;13.80;;;10.50;89.90;;;;;;5078239;28;20464;-80
2022/03/12 01:03:57;;;;;;;17.40;12.10;;;10.40;90.10;;;;;;5074384;28;20459;-81
2022/03/12 01:06:23;;;;;;;22.55;14.15;;;10.40;90.40;;;;;;5071214;28;20124;-80
2022/03/12 01:08:49;;;;;;;21.08;13.43;;;10.40;90.60;;;;;;5071633;28;20044;-80
2022/03/12 01:11:14;;;;;;;16.60;12.95;;;10.40;90.80;;;;;;5071247;28;20559;-80
2022/03/12 01:13:40;;;;;;;18.00;12.98;;;10.40;91.00;;;;;;5071344;28;20025;-80
2022/03/12 01:16:07;;;;;;;21.83;13.23;;;10.40;91.10;;;;;;5071700;28;20017;-80
2022/03/12 01:18:37;;;;;;;19.75;12.88;;;10.40;91.00;;;;;;5071647;28;20086;-80
2022/03/12 01:21:10;;;;;;;21.10;12.97;;;10.40;91.10;;;;;;5071620;28;20032;-80
2022/03/12 01:23:36;;;;;;;22.88;13.15;;;10.40;91.30;;;;;;5071399;28;20056;-81
2022/03/12 01:26:01;;;;;;;16.20;12.52;;;10.50;91.40;;;;;;5071638;28;20056;-81
2022/03/12 01:28:27;;;;;;;19.35;12.75;;;10.40;91.60;;;;;;5075255;28;20043;-80
2022/03/12 01:30:54;;;;;;;20.52;13.75;;;10.40;91.70;;;;;;5074942;28;20016;-80
2022/03/12 01:33:20;;;;;;;19.10;13.52;;;10.30;92.00;;;;;;5075406;28;20040;-81
2022/03/12 01:35:45;;;;;;;22.02;14.07;;;10.30;92.50;;;;;;5087961;28;20180;-81
2022/03/12 01:38:12;;;;;;;20.23;13.63;;;10.40;93.20;;;;;;5074301;28;20024;-80
2022/03/12 01:40:39;;;;;;;19.38;13.27;;;10.40;93.70;;;;;;5075089;28;20489;-80
2022/03/12 01:43:05;;;;;;;16.15;12.15;;;10.40;94.50;;;;;;5076479;28;20036;-80
2022/03/12 01:45:35;;;;;;;19.90;13.35;;;10.40;95.00;;;;;;5075909;28;20025;-81
2022/03/12 01:48:02;;;;;;;19.40;13.18;;;10.30;95.10;;;;;;5084579;28;20088;-80
2022/03/12 01:50:31;;;;;;;19.58;13.70;;;10.30;95.40;;;;;;5082209;28;20028;-81
2022/03/12 01:53:04;;;;;;;17.95;12.90;;;10.30;95.40;;;;;;5075259;28;20032;-81
2022/03/12 01:55:30;;;;;;;17.27;12.77;;;10.10;95.20;;;;;;5074774;28;20029;-81
2022/03/12 01:57:58;;;;;;;18.58;13.65;;;10.20;95.20;;;;;;5075755;28;20025;-81
2022/03/12 02:00:26;;;;;;;17.23;13.10;;;10.10;95.00;;;;;;5076797;28;20021;-81
2022/03/12 02:02:56;;;;;;;18.30;13.25;;;10.00;94.80;;;;;;5075247;28;20405;-81
2022/03/12 02:05:25;;;;;;;19.15;13.20;;;10.10;94.80;;;;;;5074194;28;20127;-79
2022/03/12 02:07:51;;;;;;;18.25;12.95;;;10.00;94.70;;;;;;5075690;28;20541;-81
2022/03/12 02:10:20;;;;;;;18.50;12.23;;;10.00;94.90;;;;;;5074324;28;20058;-81
2022/03/12 02:12:45;;;;;;;18.30;12.55;;;10.00;95.10;;;;;;5073945;28;20016;-81
2022/03/12 02:15:11;;;;;;;21.00;12.65;;;10.00;95.50;;;;;;5074091;28;20165;-81
2022/03/12 02:17:38;;;;;;;19.10;12.60;;;9.90;95.80;;;;;;5074295;28;20023;-82
2022/03/12 02:20:07;;;;;;;16.35;11.95;;;9.90;96.20;;;;;;5073720;28;20491;-81
2022/03/12 02:22:35;;;;;;;19.25;12.18;;;9.80;96.70;;;;;;5074329;28;20121;-81
2022/03/12 02:25:01;;;;;;;14.73;11.55;;;9.80;97.10;;;;;;5073876;28;20104;-80
2022/03/12 02:27:27;;;;;;;21.80;12.05;;;9.90;97.40;;;;;;5073653;28;20471;-81
2022/03/12 02:29:53;;;;;;;17.80;11.77;;;9.90;97.50;;;;;;5074560;28;20035;-80
2022/03/12 02:32:18;;;;;;;17.70;12.32;;;9.80;97.80;;;;;;5073831;28;20483;-81
2022/03/12 02:34:47;;;;;;;16.98;11.70;;;9.80;98.10;;;;;;5073512;28;20052;-81
2022/03/12 02:37:32;;;;;;;17.75;11.32;;;9.80;98.30;;;;;;5073269;28;20028;-81
2022/03/12 02:40:09;;;;;;;18.67;12.02;;;9.80;98.60;;;;;;5074157;28;20107;-81
2022/03/12 02:42:36;;;;;;;16.42;11.55;;;9.80;98.90;;;;;;5073465;28;20055;-81
2022/03/12 02:45:06;;;;;;;17.98;13.23;;;9.80;99.30;;;;;;5073416;28;20024;-82
2022/03/12 02:47:33;;;;;;;18.80;11.98;;;9.70;99.50;;;;;;5073756;28;20044;-81
2022/03/12 02:50:07;;;;;;;14.48;11.32;;;9.70;99.80;;;;;;5076448;28;20029;-81
2022/03/12 02:52:39;;;;;;;18.15;13.23;;;9.70;99.90;;;;;;5074846;28;20032;-81
2022/03/12 02:55:13;;;;;;;17.40;12.15;;;9.70;99.90;;;;;;5073459;28;20038;-81
2022/03/12 02:57:40;;;;;;;16.85;12.43;;;9.60;99.80;;;;;;5074636;28;20473;-80
2022/03/12 03:00:08;;;;;;;18.90;13.07;;;9.60;99.90;;;;;;5075529;28;20642;-81
2022/03/12 03:02:41;;;;;;;19.40;13.15;;;9.60;99.90;;;;;;5073762;28;20074;-81
2022/03/12 03:05:16;;;;;;;20.52;13.60;;;9.60;99.90;;;;;;5073084;28;20028;-81
2022/03/12 03:07:45;;;;;;;16.42;11.38;;;9.50;99.90;;;;;;5073240;28;20036;-81
2022/03/12 03:10:19;;;;;;;16.52;12.10;;;9.60;99.90;;;;;;5072368;28;20524;-81
2022/03/12 03:12:45;;;;;;;20.27;12.38;;;9.60;99.90;;;;;;5073023;28;20031;-81
2022/03/12 03:15:11;;;;;;;16.00;12.25;;;9.60;99.90;;;;;;5073353;28;20020;-81
2022/03/12 03:17:38;;;;;;;17.67;12.57;;;9.60;99.90;;;;;;5072778;28;20020;-81
2022/03/12 03:20:04;;;;;;;19.83;12.38;;;9.60;99.90;;;;;;5072879;28;20086;-81
2022/03/12 03:22:30;;;;;;;20.13;11.82;;;9.60;99.90;;;;;;5072589;28;20049;-81
2022/03/12 03:24:55;;;;;;;19.55;12.77;;;9.60;99.90;;;;;;5072583;28;20079;-81
2022/03/12 03:27:21;;;;;;;18.75;13.45;;;9.60;99.90;;;;;;5072447;28;20476;-81
2022/03/12 03:29:46;;;;;;;19.83;12.68;;;9.50;99.90;;;;;;5072913;28;20157;-81
2022/03/12 03:32:13;;;;;;;19.05;12.73;;;9.60;99.90;;;;;;5072027;28;20120;-81
2022/03/12 03:34:40;;;;;;;17.35;12.40;;;9.60;99.90;;;;;;5072816;28;20377;-81
2022/03/12 03:37:06;;;;;;;17.13;12.93;;;9.50;99.90;;;;;;5072834;28;20044;-80
2022/03/12 03:39:32;;;;;;;18.20;12.75;;;9.60;99.90;;;;;;5072318;28;20465;-81
2022/03/12 03:41:57;;;;;;;20.77;13.35;;;9.50;99.90;;;;;;5072508;28;20031;-81
2022/03/12 03:44:27;;;;;;;17.10;12.65;;;9.50;99.90;;;;;;5071915;28;20028;-81
2022/03/12 03:46:53;;;;;;;17.40;12.25;;;9.50;99.90;;;;;;5072537;28;20103;-81
2022/03/12 03:49:19;;;;;;;24.30;12.85;;;9.50;99.90;;;;;;5071726;28;20037;-81
2022/03/12 03:51:48;;;;;;;21.83;13.38;;;9.50;99.90;;;;;;5072105;28;20031;-80
2022/03/12 03:54:15;;;;;;;17.73;12.05;;;9.40;99.90;;;;;;5071549;28;20370;-81
2022/03/12 03:56:41;;;;;;;18.02;11.98;;;9.50;99.90;;;;;;5072756;28;20055;-81
2022/03/12 03:59:07;;;;;;;14.15;11.32;;;9.40;99.90;;;;;;5071784;28;20028;-81
2022/03/12 04:01:39;;;;;;;15.23;12.23;;;9.40;99.90;;;;;;5072108;28;20031;-81
2022/03/12 04:04:05;;;;;;;17.17;11.73;;;9.40;99.90;;;;;;5072273;28;20016;-81
2022/03/12 04:06:31;;;;;;;24.05;13.15;;;9.30;99.90;;;;;;5071264;28;20048;-81
2022/03/12 04:08:58;;;;;;;18.65;11.98;;;9.20;99.90;;;;;;5072136;28;20052;-81
2022/03/12 04:11:25;;;;;;;21.23;12.07;;;9.20;99.90;;;;;;5072029;28;20444;-81
2022/03/12 04:13:52;;;;;;;17.48;12.27;;;9.10;99.90;;;;;;5071835;28;20025;-81
2022/03/12 04:16:19;;;;;;;16.45;12.15;;;9.00;99.90;;;;;;5071960;28;20025;-81
2022/03/12 04:18:46;;;;;;;14.25;11.25;;;8.90;99.90;;;;;;5072233;28;20031;-81
2022/03/12 04:21:16;;;;;;;17.23;12.00;;;8.80;99.90;;;;;;5071810;28;20021;-81
2022/03/12 04:23:43;;;;;;;15.40;11.70;;;8.80;99.90;;;;;;5074536;28;20491;-81
2022/03/12 04:26:10;;;;;;;15.07;11.55;;;8.70;99.90;;;;;;5077148;28;20029;-81
2022/03/12 04:28:36;;;;;;;14.35;11.35;;;8.70;99.90;;;;;;5074409;28;20116;-81
2022/03/12 04:31:04;;;;;;;15.57;10.63;;;8.80;99.90;;;;;;5072566;28;20100;-81
2022/03/12 04:33:30;;;;;;;20.90;13.25;;;8.70;99.90;;;;;;5071664;28;20077;-82
2022/03/12 04:35:57;;;;;;;11.98;10.32;;;8.80;99.90;;;;;;5072611;28;20107;-81
2022/03/12 04:38:25;;;;;;;14.55;10.88;;;8.80;99.90;;;;;;5074220;28;20033;-81
2022/03/12 04:40:53;;;;;;;13.07;9.90;;;8.90;99.90;;;;;;5074341;28;20044;-81
2022/03/12 04:43:19;;;;;;;15.85;11.20;;;8.90;99.90;;;;;;5073367;28;20032;-81
2022/03/12 04:45:46;;;;;;;13.38;10.40;;;8.80;99.90;;;;;;5073247;28;20028;-81
2022/03/12 04:48:17;;;;;;;14.02;10.05;;;8.70;99.90;;;;;;5071605;28;20043;-81
2022/03/12 04:50:42;;;;;;;12.35;9.98;;;8.70;99.90;;;;;;5076372;28;20090;-81
2022/03/12 04:53:09;;;;;;;14.30;10.43;;;8.70;99.90;;;;;;5082442;28;20036;-81
2022/03/12 04:55:38;;;;;;;11.07;9.00;;;8.60;99.90;;;;;;5073320;28;20063;-81
2022/03/12 04:58:04;;;;;;;11.85;9.43;;;8.60;99.90;;;;;;5072210;28;20022;-82
2022/03/12 05:00:32;;;;;;;10.98;9.18;;;8.50;99.90;;;;;;5072773;28;20044;-81
2022/03/12 05:03:19;;;;;;;14.35;9.57;;;8.50;99.90;;;;;;5079404;28;20036;-80
2022/03/12 05:05:47;;;;;;;10.18;8.55;;;8.40;99.90;;;;;;5075971;28;20040;-82
2022/03/12 05:08:17;;;;;;;11.65;9.38;;;8.40;99.90;;;;;;5075532;28;20053;-80
2022/03/12 05:10:44;;;;;;;9.75;8.30;;;8.40;99.90;;;;;;5074940;28;20476;-81
2022/03/12 05:13:12;;;;;;;9.05;7.47;;;8.30;99.90;;;;;;5075458;28;20032;-81
2022/03/12 05:15:38;;;;;;;12.05;8.23;;;8.30;99.90;;;;;;5075313;28;20029;-80
2022/03/12 05:18:13;;;;;;;8.45;7.25;;;8.30;99.90;;;;;;5076204;28;20413;-81
2022/03/12 05:20:43;;;;;;;8.73;6.63;;;8.20;99.90;;;;;;5075990;28;20037;-81
2022/03/12 05:23:09;;;;;;;7.43;6.73;;;8.30;99.90;;;;;;5074704;28;20052;-81
2022/03/12 05:25:40;;;;;;;6.32;5.72;;;8.20;99.90;;;;;;5075011;28;20274;-81
2022/03/12 05:28:11;;;;;;;7.57;6.50;;;8.20;99.90;;;;;;5075446;28;20059;-81
2022/03/12 05:30:36;;;;;;;;;;;8.20;99.90;;;;;;5075519;28;20214;-81
2022/03/12 05:33:04;;;;;;;9.05;6.55;;;8.30;99.90;;;;;;5074973;28;19987;-81
2022/03/12 05:35:30;;;;;;;6.20;5.60;;;8.30;99.90;;;;;;5074603;28;20029;-81
2022/03/12 05:37:55;;;;;;;6.38;5.70;;;8.30;99.90;;;;;;5074202;28;20472;-80
2022/03/12 05:40:26;;;;;;;6.05;4.72;;;8.30;99.90;;;;;;5074235;28;20024;-80
2022/03/12 05:42:55;;;;;;;8.68;5.57;;;8.30;99.90;;;;;;5074964;28;20040;-80
2022/03/12 05:45:23;;;;;;;6.30;5.30;;;8.20;99.90;;;;;;5073967;28;20040;-80
2022/03/12 05:47:49;;;;;;;5.93;5.32;;;8.20;99.90;;;;;;5073997;28;20480;-80
2022/03/12 05:50:16;;;;;;;6.28;5.20;;;8.20;99.90;;;;;;5074031;28;20028;-80
2022/03/12 05:52:49;;;;;;;5.45;4.90;;;8.20;99.90;;;;;;5074029;28;20029;-79
2022/03/12 05:55:24;;;;;;;5.40;4.30;;;8.20;99.90;;;;;;5074356;28;20025;-80
2022/03/12 05:57:50;;;;;;;4.72;4.13;;;8.10;99.90;;;;;;5073800;28;20055;-79
2022/03/12 06:00:17;;;;;;;6.00;5.10;;;8.00;99.90;;;;;;5073784;28;20472;-80
2022/03/12 06:02:51;;;;;;;5.95;4.97;;;8.00;99.90;;;;;;5074311;28;20429;-79
2022/03/12 06:05:21;;;;;;;5.43;4.50;;;8.00;99.90;;;;;;5073162;28;20512;-79
2022/03/12 06:07:49;;;;;;;7.47;5.15;;;8.00;99.90;;;;;;5074237;28;20068;-79
2022/03/12 06:10:17;;;;;;;5.38;4.88;;;8.00;99.90;;;;;;5073856;28;20054;-80
2022/03/12 06:12:43;;;;;;;8.38;5.40;;;8.00;99.90;;;;;;5073092;28;20035;-80
2022/03/12 06:15:14;;;;;;;6.63;5.20;;;8.10;99.90;;;;;;5073697;28;20037;-80
2022/03/12 06:17:40;;;;;;;6.15;5.25;;;8.20;99.90;;;;;;5073639;28;20032;-80
2022/03/12 06:20:08;;;;;;;4.93;4.45;;;8.20;99.90;;;;;;5073482;28;20017;-79
2022/03/12 06:22:34;;;;;;;6.78;5.10;;;8.30;99.90;;;;;;5073776;28;20028;-80
2022/03/12 06:24:59;;;;;;;5.75;5.20;;;8.30;99.90;;;;;;5073979;28;20035;-78
2022/03/12 06:27:25;;;;;;;7.00;5.40;;;8.50;99.90;;;;;;5073122;28;20032;-82
2022/03/12 06:29:51;;;;;;;5.65;5.00;;;8.50;99.90;;;;;;5073776;28;20391;-79
2022/03/12 06:32:17;;;;;;;5.20;4.60;;;8.50;99.90;;;;;;5073677;28;20418;-81
2022/03/12 06:34:43;;;;;;;6.95;5.45;;;8.70;99.90;;;;;;5073225;28;20032;-81
2022/03/12 06:37:09;;;;;;;5.65;5.20;;;8.70;99.90;;;;;;5073429;28;20138;-81
2022/03/12 06:39:35;;;;;;;6.57;5.70;;;8.80;99.90;;;;;;5073562;28;20043;-81
2022/03/12 06:42:02;;;;;;;6.90;4.80;;;8.80;99.90;;;;;;5073248;28;20056;-79
2022/03/12 06:44:32;;;;;;;5.55;4.85;;;8.90;99.90;;;;;;5073322;28;20033;-80
2022/03/12 06:46:59;;;;;;;6.05;5.45;;;8.90;99.90;;;;;;5073480;28;20053;-78
2022/03/12 06:49:28;;;;;;;7.07;5.32;;;9.00;99.90;;;;;;5072194;28;20044;-81
2022/03/12 06:51:54;;;;;;;5.65;4.97;;;9.00;99.90;;;;;;5075750;28;20028;-80
2022/03/12 06:54:20;;;;;;;5.95;5.35;;;9.00;99.90;;;;;;5075155;28;20028;-80
2022/03/12 06:56:46;;;;;;;6.28;5.40;;;9.00;99.90;;;;;;5076669;28;20048;-80
2022/03/12 06:59:12;;;;;;;5.35;4.50;;;9.00;99.90;;;;;;5090196;28;20029;-82
2022/03/12 07:01:38;;;;;;;6.72;5.00;;;9.10;99.90;;;;;;5073711;28;20044;-81
2022/03/12 07:04:04;;;;;;;11.32;5.80;;;9.10;99.90;;;;;;5074582;28;20021;-81
2022/03/12 07:06:29;;;;;;;6.43;5.53;;;9.20;99.90;;;;;;5077041;28;20389;-80
2022/03/12 07:08:55;;;;;;;5.43;4.93;;;9.20;99.90;;;;;;5081269;28;20082;-79
2022/03/12 07:11:21;;;;;;;5.85;4.90;;;9.30;99.90;;;;;;5072396;28;20464;-79
2022/03/12 07:13:47;;;;;;;6.38;5.32;;;9.40;99.90;;;;;;5079336;28;20028;-79
2022/03/12 07:16:13;;;;;;;6.00;5.40;;;9.30;99.90;;;;;;5071783;28;20400;-79
2022/03/12 07:18:38;;;;;;;7.35;5.18;;;9.40;99.90;;;;;;5075001;28;20020;-80
2022/03/12 07:21:07;;;;;;;7.13;4.97;;;9.50;99.90;;;;;;5073358;28;20021;-81
2022/03/12 07:23:33;;;;;;;6.00;5.40;;;9.50;99.90;;;;;;5074608;28;20021;-80
2022/03/12 07:25:59;;;;;;;6.88;5.45;;;9.50;99.90;;;;;;5073967;28;20082;-80
2022/03/12 07:28:24;;;;;;;11.07;6.65;;;9.60;99.90;;;;;;5079146;28;20395;-79
2022/03/12 07:30:50;;;;;;;6.65;5.97;;;9.60;99.90;;;;;;5074369;28;20031;-80
2022/03/12 07:33:16;;;;;;;7.40;6.00;;;9.70;99.90;;;;;;5071188;28;20070;-80
2022/03/12 07:35:42;;;;;;;5.75;5.25;;;9.80;99.90;;;;;;5074561;28;20054;-80
2022/03/12 07:38:07;;;;;;;8.15;6.63;;;9.80;99.90;;;;;;5070760;28;20528;-81
2022/03/12 07:40:33;;;;;;;8.63;6.07;;;9.90;99.90;;;;;;5071393;28;20025;-81
2022/03/12 07:42:59;;;;;;;7.28;6.10;;;10.00;99.90;;;;;;5073901;28;20136;-79
2022/03/12 07:45:25;;;;;;;6.55;5.45;;;10.00;99.90;;;;;;5070453;28;20117;-80
2022/03/12 07:47:52;;;;;;;12.15;6.90;;;10.10;99.90;;;;;;5071116;28;20017;-79
2022/03/12 07:50:19;;;;;;;9.15;6.13;;;10.20;99.90;;;;;;5070343;28;20558;-79
2022/03/12 07:52:45;;;;;;;6.85;6.25;;;10.30;99.90;;;;;;5070549;28;20044;-80
2022/03/12 07:55:16;;;;;;;6.25;5.57;;;10.30;99.90;;;;;;5070957;28;20047;-79
2022/03/12 07:57:42;;;;;;;8.38;5.95;;;10.40;99.90;;;;;;5088654;28;20506;-79
2022/03/12 08:00:10;;;;;;;8.57;5.72;;;10.40;99.90;;;;;;5090765;28;20078;-80
2022/03/12 08:02:36;;;;;;;5.97;5.38;;;10.60;99.90;;;;;;5091369;28;20410;-80
2022/03/12 08:05:02;;;;;;;6.72;5.28;;;10.50;99.90;;;;;;5075720;28;20099;-80
2022/03/12 08:07:30;;;;;;;7.85;4.90;;;10.60;99.90;;;;;;5070528;28;20032;-81
2022/03/12 08:09:59;;;;;;;6.30;5.60;;;10.60;99.90;;;;;;5073642;28;20024;-80
2022/03/12 08:12:32;;;;;;;5.90;4.78;;;10.70;99.90;;;;;;5070309;28;20019;-80
2022/03/12 08:14:58;;;;;;;7.05;5.13;;;10.80;99.90;;;;;;5070601;28;20051;-79
2022/03/12 08:17:24;;;;;;;6.85;5.50;;;10.80;99.90;;;;;;5070553;28;20046;-78
2022/03/12 08:19:50;;;;;;;7.13;5.13;;;10.80;99.90;;;;;;5072928;28;20070;-78
2022/03/12 08:22:16;;;;;;;6.22;5.07;;;10.90;99.90;;;;;;5084348;28;20016;-79
2022/03/12 08:24:42;;;;;;;6.65;5.75;;;10.90;99.90;;;;;;5089478;28;20087;-77
2022/03/12 08:27:08;;;;;;;5.68;4.82;;;11.00;99.90;;;;;;5069327;28;20032;-77
2022/03/12 08:29:34;;;;;;;8.88;5.38;;;11.10;99.90;;;;;;5073780;28;20020;-79
2022/03/12 08:31:59;;;;;;;5.70;4.63;;;11.10;99.90;;;;;;5070725;28;20464;-78
2022/03/12 08:34:26;;;;;;;8.63;5.15;;;11.20;99.90;;;;;;5075932;28;20356;-76
2022/03/12 08:36:51;;;;;;;5.15;4.47;;;11.20;99.90;;;;;;5073032;28;20017;-73
2022/03/12 08:39:18;;;;;;;8.65;5.20;;;11.20;99.90;;;;;;5072527;28;20537;-72
2022/03/12 08:41:44;;;;;;;11.10;4.95;;;11.20;99.90;;;;;;5075876;28;20025;-73
2022/03/12 08:44:10;;;;;;;6.43;5.20;;;11.20;99.90;;;;;;5075190;28;20390;-72
2022/03/12 08:46:37;;;;;;;5.30;4.80;;;11.20;99.90;;;;;;5075182;28;20074;-73
2022/03/12 08:49:04;;;;;;;6.22;4.28;;;11.20;99.90;;;;;;5077168;28;20085;-74
2022/03/12 08:51:29;;;;;;;10.02;4.88;;;11.20;99.90;;;;;;5073968;28;20025;-73
2022/03/12 08:53:55;;;;;;;7.20;4.82;;;11.30;99.90;;;;;;5076757;28;20035;-76
2022/03/12 08:56:20;;;;;;;7.75;4.15;;;11.30;99.90;;;;;;5075380;28;20116;-73
2022/03/12 08:58:47;;;;;;;6.97;4.50;;;11.40;99.90;;;;;;5075565;28;20431;-73
2022/03/12 09:01:13;;;;;;;9.52;4.78;;;11.40;99.90;;;;;;5075053;28;20032;-73
2022/03/12 09:03:39;;;;;;;6.72;3.97;;;11.50;99.90;;;;;;5075628;28;20046;-74
2022/03/12 09:06:07;;;;;;;8.85;4.45;;;11.50;99.90;;;;;;5075598;28;20045;-73
2022/03/12 09:08:34;;;;;;;4.88;3.83;;;11.60;99.90;;;;;;5074744;28;20094;-74
2022/03/12 09:11:00;;;;;;;7.97;4.78;;;11.70;99.90;;;;;;5074291;28;20109;-73
2022/03/12 09:13:25;;;;;;;6.68;3.63;;;11.70;99.90;;;;;;5074045;28;20532;-73
2022/03/12 09:15:51;;;;;;;6.85;4.68;;;11.80;99.90;;;;;;5076968;28;20460;-73
2022/03/12 09:18:17;;;;;;;6.15;3.70;;;11.90;99.90;;;;;;5074411;28;20024;-74
2022/03/12 09:20:46;;;;;;;4.63;3.70;;;12.00;99.90;;;;;;5074426;28;20021;-78
2022/03/12 09:23:13;;;;;;;7.80;4.32;;;12.00;99.90;;;;;;5075795;28;20050;-75
2022/03/12 09:25:39;;;;;;;7.63;4.40;;;12.00;99.90;;;;;;5112945;28;20012;-74
2022/03/12 09:28:07;;;;;;;8.13;4.20;;;12.10;99.90;;;;;;5114151;28;20043;-73
2022/03/12 09:30:32;;;;;;;5.28;4.70;;;12.10;99.90;;;;;;5113756;28;20424;-75
2022/03/12 09:32:58;;;;;;;6.68;4.38;;;12.20;99.90;;;;;;5113988;28;20114;-74
2022/03/12 09:35:24;;;;;;;7.63;4.60;;;12.30;99.90;;;;;;5114173;28;20132;-74
2022/03/12 09:37:54;;;;;;;6.68;4.82;;;12.40;99.90;;;;;;5112857;28;20023;-73
2022/03/12 09:40:20;;;;;;;5.55;4.47;;;12.40;99.90;;;;;;5113964;28;20717;-73
2022/03/12 09:42:46;;;;;;;7.20;4.10;;;12.40;99.90;;;;;;5113905;28;20097;-74
2022/03/12 09:45:12;;;;;;;6.80;4.50;;;12.50;99.90;;;;;;5114647;28;20024;-73
2022/03/12 09:47:38;;;;;;;9.52;4.88;;;12.50;99.90;;;;;;5105797;28;20071;-74
2022/03/12 09:50:05;;;;;;;8.70;4.80;;;12.50;99.90;;;;;;5099524;28;20044;-74
2022/03/12 09:52:32;;;;;;;6.78;4.60;;;12.60;99.90;;;;;;5113223;28;20040;-74
2022/03/12 09:54:57;;;;;;;6.88;4.32;;;12.60;99.90;;;;;;5108642;28;20028;-72
2022/03/12 09:57:23;;;;;;;1999.90;999.90;;;12.60;99.90;;;;;;5088412;28;20130;-72
2022/03/12 09:59:49;;;;;;;5.50;4.20;;;12.70;99.90;;;;;;5090979;28;20030;-73
2022/03/12 10:02:14;;;;;;;9.30;3.92;;;12.70;99.90;;;;;;5112965;28;20081;-73
2022/03/12 10:04:40;;;;;;;9.07;3.97;;;12.80;99.90;;;;;;5113135;28;20498;-74
2022/03/12 10:07:08;;;;;;;5.57;3.35;;;12.90;99.90;;;;;;5112999;28;20043;-73
2022/03/12 10:09:34;;;;;;;188.65;45.00;;;13.00;99.90;;;;;;5106740;28;20085;-74
2022/03/12 10:12:01;;;;;;;9.25;3.75;;;13.10;99.90;;;;;;5113136;28;20028;-74
2022/03/12 10:14:27;;;;;;;68.82;5.40;;;13.20;99.90;;;;;;5112417;28;20560;-74
2022/03/12 10:16:53;;;;;;;5.00;2.45;;;13.30;99.90;;;;;;5099078;28;20039;-74
2022/03/12 10:19:19;;;;;;;7.75;3.42;;;13.40;99.90;;;;;;5100372;28;20091;-74
2022/03/12 10:21:54;;;;;;;7.47;3.38;;;13.50;99.90;;;;;;5113298;28;20471;-73
2022/03/12 10:24:20;;;;;;;16.75;3.10;;;13.70;99.90;;;;;;5106403;28;20435;-74
2022/03/12 10:26:46;;;;;;;4.97;3.05;;;13.90;99.90;;;;;;5086981;28;20384;-74
2022/03/12 10:29:11;;;;;;;6.13;3.20;;;14.00;99.90;;;;;;5088073;28;20036;-74
2022/03/12 10:31:41;;;;;;;6.88;3.47;;;14.10;99.90;;;;;;5080984;28;20025;-73
2022/03/12 10:34:23;;;;;;;5.68;3.50;;;14.10;99.90;;;;;;5077621;28;20120;-74
2022/03/12 10:36:57;;;;;;;7.47;2.88;;;14.20;99.90;;;;;;5080556;28;20025;-74
2022/03/12 10:39:33;;;;;;;7.80;3.05;;;14.20;99.90;;;;;;5086963;28;20025;-74
2022/03/12 10:42:06;;;;;;;4.93;2.90;;;14.10;99.90;;;;;;5087702;28;20483;-73
2022/03/12 10:44:37;;;;;;;6.57;3.67;;;14.10;99.90;;;;;;5081806;28;20472;-74
2022/03/12 10:47:12;;;;;;;3.90;3.60;;;13.90;99.90;;;;;;5070975;28;20016;-73
2022/03/12 10:49:37;;;;;;;7.68;4.13;;;13.80;99.90;;;;;;5072217;28;20032;-74
2022/03/12 10:52:04;;;;;;;6.50;4.80;;;13.60;99.90;;;;;;5078193;28;20032;-73
2022/03/12 10:54:29;;;;;;;8.02;5.18;;;13.50;99.90;;;;;;5084326;28;20115;-73
2022/03/12 10:56:56;;;;;;;4.22;3.47;;;13.40;99.90;;;;;;5092238;28;20130;-74
2022/03/12 10:59:26;;;;;;;8.38;4.20;;;13.40;99.90;;;;;;5091737;28;20021;-73
2022/03/12 11:01:54;;;;;;;8.23;3.97;;;13.40;99.90;;;;;;5079312;28;20488;-73
2022/03/12 11:04:23;;;;;;;8.45;3.92;;;13.50;99.90;;;;;;5074714;28;20150;-73
2022/03/12 11:06:54;;;;;;;4.72;4.03;;;13.60;99.90;;;;;;5079881;28;20072;-73
2022/03/12 11:09:36;;;;;;;6.88;2.90;;;13.70;99.90;;;;;;5071090;28;20041;-72
2022/03/12 11:12:10;;;;;;;5.13;2.45;;;13.90;99.90;;;;;;5074427;28;20047;-73
2022/03/12 11:14:35;;;;;;;4.68;2.85;;;14.00;99.90;;;;;;5071350;28;20023;-73
2022/03/12 11:17:02;;;;;;;4.47;2.90;;;14.00;99.90;;;;;;5072347;28;20020;-73
2022/03/12 11:19:37;;;;;;;5.13;2.90;;;14.00;99.90;;;;;;5085430;28;20036;-73
2022/03/12 11:22:13;;;;;;;4.28;2.30;;;14.00;99.90;;;;;;5072273;28;20028;-72
2022/03/12 11:24:50;;;;;;;3.90;2.33;;;14.10;99.60;;;;;;5072534;28;20028;-73
2022/03/12 11:27:36;;;;;;;4.15;2.28;;;14.10;99.30;;;;;;5072976;28;20032;-73
2022/03/12 11:30:08;;;;;;;11.15;2.00;;;14.10;99.00;;;;;;5072440;28;20060;-74
2022/03/12 11:32:37;;;;;;;4.00;2.30;;;14.10;99.30;;;;;;5073744;28;20029;-73
2022/03/12 11:35:10;;;;;;;3.47;2.22;;;14.10;99.10;;;;;;5073125;28;20447;-73
2022/03/12 11:37:37;;;;;;;5.43;2.03;;;14.00;99.10;;;;;;5071687;28;20029;-73
2022/03/12 11:40:05;;;;;;;4.63;2.53;;;14.00;99.20;;;;;;5074816;28;20102;-73
2022/03/12 11:42:35;;;;;;;5.28;2.42;;;14.10;99.90;;;;;;5071111;28;20024;-73
2022/03/12 11:45:04;;;;;;;5.60;2.30;;;14.10;99.30;;;;;;5072457;28;20055;-73
2022/03/12 11:47:35;;;;;;;3.90;2.30;;;14.20;99.10;;;;;;5072314;28;20040;-74
2022/03/12 11:50:08;;;;;;;3.67;2.20;;;14.20;98.70;;;;;;5073955;28;20036;-74
2022/03/12 11:52:35;;;;;;;3.55;2.03;;;14.20;98.40;;;;;;5072249;28;20023;-73
2022/03/12 11:55:02;;;;;;;3.13;2.22;;;14.30;98.90;;;;;;5072253;28;20476;-73
2022/03/12 11:57:30;;;;;;;3.38;2.10;;;14.30;98.40;;;;;;5071527;28;20029;-74
2022/03/12 11:59:57;;;;;;;4.65;2.20;;;14.40;98.60;;;;;;5072360;28;20031;-73
2022/03/12 12:02:33;;;;;;;6.93;2.53;;;14.50;98.80;;;;;;5071837;28;20029;-73
2022/03/12 12:05:07;;;;;;;3.97;2.33;;;14.60;98.30;;;;;;5071471;28;20399;-73
2022/03/12 12:07:43;;;;;;;5.57;2.10;;;14.70;97.50;;;;;;5072076;28;20045;-73
2022/03/12 12:10:14;;;;;;;4.88;2.50;;;14.80;97.60;;;;;;5071399;28;20024;-74
2022/03/12 12:12:45;;;;;;;5.55;1.90;;;14.80;97.10;;;;;;5071561;28;20028;-73
2022/03/12 12:15:15;;;;;;;3.80;1.88;;;14.80;96.90;;;;;;5071715;28;20488;-73
2022/03/12 12:17:43;;;;;;;5.05;2.03;;;14.80;96.90;;;;;;5071578;28;20036;-73
2022/03/12 12:20:09;;;;;;;7.57;2.67;;;14.80;96.90;;;;;;5071334;28;20048;-73
2022/03/12 12:22:35;;;;;;;4.03;2.10;;;14.90;97.00;;;;;;5071997;28;20024;-74
2022/03/12 12:25:05;;;;;;;4.00;1.90;;;15.00;97.10;;;;;;5071689;28;20021;-73
2022/03/12 12:27:43;;;;;;;8.18;1.98;;;15.20;96.40;;;;;;5071555;28;20194;-73
2022/03/12 12:30:14;;;;;;;6.10;1.90;;;15.30;96.00;;;;;;5071595;28;20083;-73
2022/03/12 12:32:45;;;;;;;1999.90;999.90;;;15.40;95.00;;;;;;5071026;28;20155;-73
2022/03/12 12:35:17;;;;;;;5.45;2.30;;;15.40;94.90;;;;;;5071553;28;20036;-73
2022/03/12 12:37:57;;;;;;;4.55;2.53;;;15.40;94.60;;;;;;5071867;28;20021;-73
2022/03/12 12:40:43;;;;;;;4.75;2.10;;;15.50;94.40;;;;;;5070809;28;20052;-72
2022/03/12 12:43:13;;;;;;;3.22;1.90;;;15.50;94.20;;;;;;5071300;28;20037;-73
2022/03/12 12:45:53;;;;;;;2.25;1.55;;;15.50;94.20;;;;;;5071566;28;20399;-73